Time;durP1;ratioP1;P1;durP2;ratioP2;P2;SDS_P1;SDS_P2;PMS_P1;PMS_P2;Temp;Humidity;BMP_temperature;BMP_pressure;BME280_temperature;BME280_humidity;BME280_pressure;Samples;Min_cycle;Max_cycle;Signal;HPM_P1;HPM_P2
2022/10/27 00:00:34;;;;;;;7.37;4.03;;;7.70;99.90;;;;;;4196481;28;20693;-66
2022/10/27 00:02:35;;;;;;;6.40;3.70;;;7.70;99.90;;;;;;4195280;28;20224;-66
2022/10/27 00:04:35;;;;;;;6.40;3.93;;;7.70;99.90;;;;;;4196688;28;20469;-67
2022/10/27 00:06:36;;;;;;;12.53;4.30;;;7.70;99.90;;;;;;4196401;28;20185;-69
2022/10/27 00:08:37;;;;;;;9.23;4.00;;;7.70;99.90;;;;;;4196792;28;20173;-66
2022/10/27 00:10:37;;;;;;;8.90;3.90;;;7.70;99.90;;;;;;4196303;28;20200;-65
2022/10/27 00:12:38;;;;;;;6.57;3.20;;;7.70;99.90;;;;;;4197104;28;20228;-65
2022/10/27 00:14:40;;;;;;;7.90;3.10;;;7.60;99.90;;;;;;4196994;28;20278;-66
2022/10/27 00:16:40;;;;;;;6.90;3.20;;;7.60;99.90;;;;;;4196809;28;20190;-66
2022/10/27 00:18:42;;;;;;;7.53;3.13;;;7.60;99.90;;;;;;4197297;28;20246;-66
2022/10/27 00:20:43;;;;;;;10.33;3.67;;;7.60;99.90;;;;;;4196390;28;20207;-66
2022/10/27 00:22:43;;;;;;;5.63;3.37;;;7.50;99.90;;;;;;4196772;28;20437;-66
2022/10/27 00:24:44;;;;;;;7.77;4.33;;;7.50;99.90;;;;;;4196436;28;20282;-65
2022/10/27 00:26:44;;;;;;;8.00;3.17;;;7.50;99.90;;;;;;4196655;28;20249;-66
2022/10/27 00:28:45;;;;;;;5.37;2.80;;;7.50;99.90;;;;;;4197097;28;20192;-66
2022/10/27 00:30:46;;;;;;;5.37;3.03;;;7.60;99.90;;;;;;4195840;28;20203;-66
2022/10/27 00:32:46;;;;;;;5.73;3.10;;;7.50;99.90;;;;;;4196512;28;20187;-66
2022/10/27 00:34:47;;;;;;;7.80;2.90;;;7.60;99.90;;;;;;4196898;28;20186;-66
2022/10/27 00:36:47;;;;;;;6.93;3.43;;;7.60;99.90;;;;;;4196627;28;20297;-66
2022/10/27 00:38:48;;;;;;;5.50;3.00;;;7.60;99.90;;;;;;4196779;28;20187;-66
2022/10/27 00:40:49;;;;;;;6.43;3.20;;;7.60;99.90;;;;;;4195906;28;20701;-67
2022/10/27 00:42:49;;;;;;;6.37;3.03;;;7.60;99.90;;;;;;4196151;28;20552;-68
2022/10/27 00:44:50;;;;;;;5.23;2.70;;;7.50;99.90;;;;;;4196429;28;20219;-66
2022/10/27 00:46:51;;;;;;;7.13;2.90;;;7.50;99.90;;;;;;4196409;28;20246;-67
2022/10/27 00:48:56;;;;;;;7.60;3.00;;;7.50;99.90;;;;;;4196363;28;20188;-67
2022/10/27 00:51:00;;;;;;;3.97;2.93;;;7.40;99.90;;;;;;4195879;28;20285;-66
2022/10/27 00:53:00;;;;;;;4.43;2.93;;;7.40;99.90;;;;;;4196414;28;20938;-67
2022/10/27 00:55:05;;;;;;;6.87;3.07;;;7.50;99.90;;;;;;4196404;28;20419;-67
2022/10/27 00:57:08;;;;;;;7.23;3.10;;;7.40;99.90;;;;;;4196054;28;20202;-67
2022/10/27 00:59:09;;;;;;;6.60;2.63;;;7.40;99.90;;;;;;4195234;28;20532;-67
2022/10/27 01:01:11;;;;;;;3.43;2.60;;;7.40;99.90;;;;;;4181042;28;20427;-66
2022/10/27 01:03:16;;;;;;;4.47;2.50;;;7.40;99.90;;;;;;4179795;28;20176;-66
2022/10/27 01:05:20;;;;;;;7.67;2.67;;;7.40;99.90;;;;;;4179775;28;20561;-66
2022/10/27 01:07:22;;;;;;;5.23;2.63;;;7.40;99.90;;;;;;4179798;28;20441;-66
2022/10/27 01:09:23;;;;;;;6.40;2.37;;;7.40;99.90;;;;;;4179454;28;20873;-66
2022/10/27 01:11:24;;;;;;;6.37;2.43;;;7.50;99.90;;;;;;4191056;28;20434;-66
2022/10/27 01:13:24;;;;;;;6.00;2.63;;;7.50;99.90;;;;;;4195922;28;20685;-66
2022/10/27 01:15:49;;;;;;;4.87;2.33;;;7.50;99.90;;;;;;4196242;28;20649;-66
2022/10/27 01:18:09;;;;;;;3.50;2.20;;;7.50;99.90;;;;;;4195990;28;20342;-66
2022/10/27 01:20:35;;;;;;;2.73;2.07;;;7.40;99.90;;;;;;4198074;28;20895;-66
2022/10/27 01:22:49;;;;;;;7.97;2.50;;;7.40;99.90;;;;;;4199278;28;20415;-66
2022/10/27 01:25:08;;;;;;;5.50;2.47;;;7.40;99.90;;;;;;4198893;28;20465;-66
2022/10/27 01:28:00;;;;;;;3.70;2.13;;;7.30;99.90;;;;;;4198832;28;20480;-66
2022/10/27 01:30:13;;;;;;;5.17;2.30;;;7.30;99.90;;;;;;4197302;28;21092;-66
2022/10/27 01:32:55;;;;;;;3.63;2.50;;;7.30;99.90;;;;;;4198808;28;20429;-66
2022/10/27 01:35:19;;;;;;;3.67;2.00;;;7.40;99.90;;;;;;4199193;28;20431;-66
2022/10/27 01:37:40;;;;;;;3.13;2.13;;;7.50;99.90;;;;;;4198587;28;20909;-66
2022/10/27 01:40:00;;;;;;;5.17;2.50;;;7.40;99.90;;;;;;4199891;28;20414;-65
2022/10/27 01:42:10;;;;;;;6.70;2.50;;;7.40;99.90;;;;;;4198064;28;20432;-66
2022/10/27 01:44:17;;;;;;;8.37;3.20;;;7.40;99.90;;;;;;4198583;28;20488;-66
2022/10/27 01:46:18;;;;;;;5.83;3.33;;;7.50;99.90;;;;;;4198536;28;20460;-66
2022/10/27 01:48:19;;;;;;;4.93;2.47;;;7.50;99.90;;;;;;4198573;28;20819;-66
2022/10/27 01:50:27;;;;;;;5.40;2.27;;;7.60;99.90;;;;;;4197733;28;20429;-66
2022/10/27 01:52:48;;;;;;;4.80;2.17;;;7.50;99.90;;;;;;4198327;28;20183;-66
2022/10/27 01:54:48;;;;;;;6.70;2.43;;;7.50;99.90;;;;;;4198398;28;20497;-66
2022/10/27 01:57:19;;;;;;;4.43;2.50;;;7.50;99.90;;;;;;4198259;28;20449;-70
2022/10/27 01:59:31;;;;;;;6.30;2.40;;;7.50;99.90;;;;;;4198406;28;20233;-66
2022/10/27 02:02:03;;;;;;;4.90;2.43;;;7.50;99.90;;;;;;4197480;28;20431;-67
2022/10/27 02:04:24;;;;;;;3.53;2.30;;;7.50;99.90;;;;;;4197787;28;20523;-67
2022/10/27 02:06:43;;;;;;;4.97;2.47;;;7.50;99.90;;;;;;4197832;28;20207;-66
2022/10/27 02:09:11;;;;;;;5.83;2.30;;;7.50;99.90;;;;;;4197759;28;20422;-67
2022/10/27 02:11:12;;;;;;;4.40;2.80;;;7.50;99.90;;;;;;4195975;28;20434;-67
2022/10/27 02:13:12;;;;;;;6.07;2.30;;;7.60;99.90;;;;;;4197631;28;20536;-67
2022/10/27 02:15:36;;;;;;;6.67;2.70;;;7.60;99.90;;;;;;4197542;28;20181;-66
2022/10/27 02:17:42;;;;;;;4.93;2.40;;;7.60;99.90;;;;;;4198000;28;20674;-67
2022/10/27 02:19:47;;;;;;;6.03;2.70;;;7.70;99.90;;;;;;4197915;28;20805;-67
2022/10/27 02:21:51;;;;;;;11.27;4.23;;;7.70;99.90;;;;;;4197269;28;20422;-67
2022/10/27 02:23:52;;;;;;;4.97;2.50;;;7.70;99.90;;;;;;4197535;28;20556;-67
2022/10/27 02:26:28;;;;;;;5.30;2.27;;;7.50;99.90;;;;;;4197578;28;20430;-67
2022/10/27 02:28:53;;;;;;;3.90;2.53;;;7.50;99.90;;;;;;4196913;28;20967;-67
2022/10/27 02:30:58;;;;;;;5.80;2.23;;;7.40;99.90;;;;;;4196523;28;20486;-67
2022/10/27 02:32:58;;;;;;;3.47;2.50;;;7.40;99.90;;;;;;4198137;28;20430;-67
2022/10/27 02:34:59;;;;;;;4.30;2.30;;;7.40;99.90;;;;;;4197412;28;21004;-67
2022/10/27 02:37:03;;;;;;;6.17;2.50;;;7.40;99.90;;;;;;4197220;28;20208;-67
2022/10/27 02:39:03;;;;;;;5.57;2.80;;;7.30;99.90;;;;;;4197346;28;20982;-67
2022/10/27 02:41:04;;;;;;;6.43;2.70;;;7.20;99.90;;;;;;4197063;28;20418;-68
2022/10/27 02:43:04;;;;;;;7.03;2.77;;;7.30;99.90;;;;;;4197151;28;20186;-67
2022/10/27 02:45:05;;;;;;;3.30;2.30;;;7.30;99.90;;;;;;4190681;28;20763;-67
2022/10/27 02:47:06;;;;;;;11.50;2.97;;;7.30;99.90;;;;;;4196421;28;20255;-67
2022/10/27 02:49:07;;;;;;;5.77;2.50;;;7.40;99.90;;;;;;4197411;28;20414;-67
2022/10/27 02:51:07;;;;;;;8.33;2.70;;;7.40;99.90;;;;;;4196223;28;20215;-67
2022/10/27 02:53:08;;;;;;;7.23;3.00;;;7.50;99.90;;;;;;4193654;28;20650;-67
2022/10/27 02:55:09;;;;;;;8.93;3.00;;;7.50;99.90;;;;;;4197068;28;20188;-67
2022/10/27 02:57:09;;;;;;;5.77;2.50;;;7.50;99.90;;;;;;4196741;28;20618;-67
2022/10/27 02:59:10;;;;;;;6.13;2.80;;;7.50;99.90;;;;;;4196777;28;20441;-67
2022/10/27 03:01:10;;;;;;;7.77;3.30;;;7.50;99.90;;;;;;4194655;28;20207;-67
2022/10/27 03:03:11;;;;;;;4.67;2.80;;;7.50;99.90;;;;;;4196651;28;20202;-67
2022/10/27 03:05:12;;;;;;;6.33;2.60;;;7.50;99.90;;;;;;4196503;28;20270;-67
2022/10/27 03:07:12;;;;;;;7.60;3.33;;;7.60;99.90;;;;;;4196627;28;20191;-67
2022/10/27 03:09:13;;;;;;;6.23;2.90;;;7.60;99.90;;;;;;4196659;28;20175;-67
2022/10/27 03:11:13;;;;;;;5.33;3.23;;;7.60;99.90;;;;;;4195776;28;20186;-67
2022/10/27 03:13:14;;;;;;;7.80;4.43;;;7.70;99.90;;;;;;4196326;28;20199;-67
2022/10/27 03:15:14;;;;;;;6.47;2.70;;;7.70;99.90;;;;;;4196077;28;20578;-67
2022/10/27 03:17:15;;;;;;;5.17;2.70;;;7.60;99.90;;;;;;4196157;28;20885;-67
2022/10/27 03:19:16;;;;;;;5.13;2.60;;;7.60;99.90;;;;;;4196242;28;20202;-67
2022/10/27 03:21:16;;;;;;;7.97;3.10;;;7.60;99.90;;;;;;4195454;28;20266;-67
2022/10/27 03:23:17;;;;;;;6.80;2.93;;;7.60;99.90;;;;;;4196271;28;20183;-67
2022/10/27 03:25:17;;;;;;;9.00;2.73;;;7.60;99.90;;;;;;4196006;28;20210;-67
2022/10/27 03:27:18;;;;;;;4.17;2.13;;;7.60;99.90;;;;;;4195884;28;20823;-67
2022/10/27 03:29:18;;;;;;;5.43;2.70;;;7.50;99.90;;;;;;4195957;28;20202;-67
2022/10/27 03:31:19;;;;;;;3.37;2.17;;;7.50;99.90;;;;;;4193865;28;20175;-67
2022/10/27 03:33:19;;;;;;;4.00;2.43;;;7.50;99.90;;;;;;4195484;28;20183;-67
2022/10/27 03:35:20;;;;;;;11.23;3.13;;;7.50;99.90;;;;;;4195719;28;20179;-67
2022/10/27 03:37:21;;;;;;;11.10;5.30;;;7.60;99.90;;;;;;4195679;28;20203;-67
2022/10/27 03:39:21;;;;;;;9.20;5.60;;;7.60;99.90;;;;;;4195846;28;20211;-67
2022/10/27 03:41:22;;;;;;;8.87;5.27;;;7.70;99.90;;;;;;4195084;28;20253;-66
2022/10/27 03:43:22;;;;;;;7.20;4.40;;;7.70;99.90;;;;;;4194101;28;20195;-67
2022/10/27 03:45:25;;;;;;;9.77;4.07;;;7.70;99.90;;;;;;4193801;28;20766;-67
2022/10/27 03:47:25;;;;;;;9.67;4.30;;;7.70;99.90;;;;;;4195192;28;20191;-67
2022/10/27 03:49:26;;;;;;;9.37;3.80;;;7.80;99.90;;;;;;4195859;28;20183;-67
2022/10/27 03:51:27;;;;;;;13.70;4.13;;;7.60;99.90;;;;;;4195405;28;20295;-67
2022/10/27 03:53:28;;;;;;;6.67;3.47;;;7.60;99.90;;;;;;4196049;28;20186;-67
2022/10/27 03:55:30;;;;;;;5.30;3.20;;;7.70;99.90;;;;;;4195666;28;20429;-67
2022/10/27 03:57:30;;;;;;;3.73;2.80;;;7.70;99.90;;;;;;4196136;28;20198;-67
2022/10/27 03:59:31;;;;;;;9.97;3.63;;;7.70;99.90;;;;;;4195681;28;20194;-67
2022/10/27 04:01:33;;;;;;;6.33;3.47;;;7.80;99.90;;;;;;4195238;28;20277;-67
2022/10/27 04:03:34;;;;;;;5.97;3.50;;;7.80;99.90;;;;;;4195646;28;20537;-66
2022/10/27 04:05:34;;;;;;;6.03;3.33;;;7.80;99.90;;;;;;4195590;28;20177;-67
2022/10/27 04:07:35;;;;;;;5.00;2.73;;;7.80;99.90;;;;;;4195538;28;20211;-67
2022/10/27 04:09:35;;;;;;;12.70;3.60;;;7.70;99.90;;;;;;4195827;28;20246;-67
2022/10/27 04:11:36;;;;;;;9.73;3.60;;;7.70;99.90;;;;;;4195204;28;20182;-67
2022/10/27 04:13:36;;;;;;;8.90;5.73;;;7.80;99.90;;;;;;4195644;28;20787;-67
2022/10/27 04:15:37;;;;;;;9.10;3.73;;;7.80;99.90;;;;;;4195497;28;20246;-67
2022/10/27 04:17:37;;;;;;;9.50;3.37;;;7.80;99.90;;;;;;4195575;28;20208;-67
2022/10/27 04:19:38;;;;;;;8.03;3.60;;;7.70;99.90;;;;;;4195611;28;20181;-67
2022/10/27 04:21:38;;;;;;;6.57;3.17;;;7.70;99.90;;;;;;4194817;28;20172;-67
2022/10/27 04:23:39;;;;;;;7.03;3.03;;;7.70;99.90;;;;;;4195135;28;20171;-67
2022/10/27 04:25:40;;;;;;;8.43;3.07;;;7.70;99.90;;;;;;4195445;28;20210;-67
2022/10/27 04:27:40;;;;;;;12.33;3.07;;;7.60;99.90;;;;;;4195401;28;20275;-67
2022/10/27 04:29:41;;;;;;;6.17;3.10;;;7.60;99.90;;;;;;4195491;28;20173;-67
2022/10/27 04:31:41;;;;;;;6.43;3.00;;;7.60;99.90;;;;;;4194870;28;20176;-67
2022/10/27 04:33:42;;;;;;;8.23;3.20;;;7.60;99.90;;;;;;4195113;28;20290;-67
2022/10/27 04:35:42;;;;;;;4.67;3.23;;;7.60;99.90;;;;;;4195366;28;20255;-67
2022/10/27 04:37:43;;;;;;;5.70;3.27;;;7.60;99.90;;;;;;4193736;28;20280;-67
2022/10/27 04:39:43;;;;;;;4.53;2.63;;;7.60;99.90;;;;;;4195104;28;20552;-67
2022/10/27 04:41:44;;;;;;;5.30;2.97;;;7.60;99.90;;;;;;4194601;28;20195;-66
2022/10/27 04:43:48;;;;;;;6.53;3.77;;;7.60;99.90;;;;;;4194910;28;20178;-67
2022/10/27 04:45:49;;;;;;;6.30;3.10;;;7.60;99.90;;;;;;4195090;28;20176;-67
2022/10/27 04:47:49;;;;;;;4.97;2.80;;;7.60;99.90;;;;;;4194708;28;20195;-67
2022/10/27 04:49:50;;;;;;;5.73;3.23;;;7.60;99.90;;;;;;4195040;28;20717;-67
2022/10/27 04:51:51;;;;;;;4.87;2.90;;;7.70;99.90;;;;;;4194437;28;20179;-67
2022/10/27 04:53:51;;;;;;;7.70;2.93;;;7.80;99.90;;;;;;4195697;28;20549;-67
2022/10/27 04:55:53;;;;;;;4.33;2.87;;;7.70;99.90;;;;;;4183649;28;20721;-67
2022/10/27 04:57:54;;;;;;;6.23;3.10;;;7.80;99.90;;;;;;4181619;28;20215;-67
2022/10/27 04:59:54;;;;;;;7.00;3.63;;;7.70;99.90;;;;;;4181417;28;20250;-67
2022/10/27 05:01:55;;;;;;;5.87;3.50;;;7.70;99.90;;;;;;4185146;28;20193;-67
2022/10/27 05:03:55;;;;;;;4.17;3.00;;;7.60;99.90;;;;;;4193947;28;20223;-67
2022/10/27 05:05:58;;;;;;;8.07;3.27;;;7.60;99.90;;;;;;4197870;28;20256;-67
2022/10/27 05:08:01;;;;;;;6.87;3.40;;;7.60;99.90;;;;;;4197954;28;20242;-67
2022/10/27 05:10:02;;;;;;;5.50;2.97;;;7.70;99.90;;;;;;4198155;28;20436;-68
2022/10/27 05:12:02;;;;;;;9.37;3.60;;;7.80;99.90;;;;;;4197243;28;20489;-67
2022/10/27 05:14:03;;;;;;;8.33;3.50;;;7.90;99.90;;;;;;4198091;28;20175;-67
2022/10/27 05:16:04;;;;;;;7.07;3.50;;;7.90;99.90;;;;;;4198216;28;20180;-68
2022/10/27 05:18:05;;;;;;;6.57;3.37;;;7.90;99.90;;;;;;4198084;28;20210;-68
2022/10/27 05:20:06;;;;;;;5.97;3.20;;;7.80;99.90;;;;;;4198011;28;20183;-67
2022/10/27 05:22:06;;;;;;;6.83;3.90;;;7.90;99.90;;;;;;4197421;28;20664;-67
2022/10/27 05:24:07;;;;;;;7.43;3.73;;;7.90;99.90;;;;;;4197961;28;20479;-67
2022/10/27 05:26:08;;;;;;;8.50;3.60;;;7.80;99.90;;;;;;4197941;28;20183;-68
2022/10/27 05:28:10;;;;;;;5.53;3.47;;;7.80;99.90;;;;;;4198050;28;20193;-67
2022/10/27 05:30:11;;;;;;;8.80;3.30;;;7.80;99.90;;;;;;4197430;28;20699;-67
2022/10/27 05:32:12;;;;;;;5.40;3.03;;;7.80;99.90;;;;;;4197507;28;20181;-67
2022/10/27 05:34:12;;;;;;;7.80;3.20;;;7.80;99.90;;;;;;4197916;28;20183;-66
2022/10/27 05:36:13;;;;;;;9.50;3.67;;;7.70;99.90;;;;;;4197780;28;20272;-67
2022/10/27 05:38:14;;;;;;;7.77;4.10;;;7.70;99.90;;;;;;4197584;28;20257;-67
2022/10/27 05:40:15;;;;;;;12.80;4.23;;;7.70;99.90;;;;;;4197116;28;20197;-67
2022/10/27 05:42:15;;;;;;;10.13;3.93;;;7.80;99.90;;;;;;4197958;28;20209;-67
2022/10/27 05:44:16;;;;;;;10.27;3.80;;;7.80;99.90;;;;;;4197572;28;20898;-68
2022/10/27 05:46:16;;;;;;;7.97;3.87;;;7.80;99.90;;;;;;4197486;28;21006;-67
2022/10/27 05:48:17;;;;;;;10.47;4.67;;;7.80;99.90;;;;;;4197334;28;20204;-68
2022/10/27 05:50:17;;;;;;;6.53;4.77;;;7.90;99.90;;;;;;4196850;28;20552;-68
2022/10/27 05:52:18;;;;;;;11.50;5.10;;;7.90;99.90;;;;;;4197589;28;20521;-68
2022/10/27 05:54:18;;;;;;;8.27;3.90;;;7.90;99.90;;;;;;4197492;28;20703;-68
2022/10/27 05:56:19;;;;;;;8.47;3.50;;;7.90;99.90;;;;;;4197465;28;20273;-68
2022/10/27 05:58:20;;;;;;;9.83;4.00;;;7.90;99.90;;;;;;4197277;28;20765;-68
2022/10/27 06:00:22;;;;;;;9.53;3.90;;;7.80;99.90;;;;;;4196697;28;20213;-67
2022/10/27 06:02:22;;;;;;;5.27;3.27;;;7.90;99.90;;;;;;4197225;28;20196;-67
2022/10/27 06:04:23;;;;;;;6.93;3.60;;;7.90;99.90;;;;;;4196613;28;20797;-68
2022/10/27 06:06:24;;;;;;;6.53;3.60;;;7.90;99.90;;;;;;4196857;28;20248;-67
2022/10/27 06:08:24;;;;;;;6.47;4.03;;;8.00;99.90;;;;;;4197123;28;20213;-67
2022/10/27 06:10:28;;;;;;;6.10;3.17;;;8.00;99.90;;;;;;4196525;28;20188;-68
2022/10/27 06:12:28;;;;;;;7.63;3.43;;;8.10;99.90;;;;;;4197030;28;20560;-68
2022/10/27 06:14:29;;;;;;;8.83;3.87;;;8.10;99.90;;;;;;4196995;28;20194;-67
2022/10/27 06:16:29;;;;;;;9.97;3.90;;;8.10;99.90;;;;;;4196940;28;20277;-67
2022/10/27 06:18:30;;;;;;;8.93;4.50;;;8.10;99.90;;;;;;4197091;28;20204;-67
2022/10/27 06:20:30;;;;;;;10.23;3.50;;;8.10;99.90;;;;;;4196376;28;20279;-67
2022/10/27 06:22:31;;;;;;;6.27;3.60;;;8.30;99.90;;;;;;4197067;28;20186;-67
2022/10/27 06:24:31;;;;;;;7.53;4.13;;;8.30;99.90;;;;;;4196701;28;20214;-67
2022/10/27 06:26:32;;;;;;;10.23;4.77;;;8.30;99.90;;;;;;4196810;28;20665;-67
2022/10/27 06:28:32;;;;;;;5.83;4.27;;;8.20;99.90;;;;;;4196825;28;20172;-67
2022/10/27 06:30:33;;;;;;;7.40;4.13;;;8.20;99.90;;;;;;4196090;28;20205;-67
2022/10/27 06:32:40;;;;;;;8.40;4.30;;;8.30;99.90;;;;;;4196763;28;20647;-67
2022/10/27 06:34:41;;;;;;;7.43;4.43;;;8.20;99.90;;;;;;4191163;28;20200;-67
2022/10/27 06:36:41;;;;;;;8.80;4.57;;;8.20;99.90;;;;;;4187933;28;20175;-67
2022/10/27 06:38:42;;;;;;;8.53;3.97;;;8.20;99.90;;;;;;4187906;28;20184;-67
2022/10/27 06:40:43;;;;;;;8.03;4.27;;;8.20;99.90;;;;;;4187453;28;20195;-67
2022/10/27 06:42:49;;;;;;;6.00;3.73;;;8.30;99.90;;;;;;4188138;28;20292;-67
2022/10/27 06:44:50;;;;;;;8.10;4.37;;;8.30;99.90;;;;;;4187716;28;20208;-67
2022/10/27 06:46:51;;;;;;;11.83;5.33;;;8.40;99.90;;;;;;4187758;28;20209;-67
2022/10/27 06:48:51;;;;;;;8.83;4.20;;;8.40;99.90;;;;;;4187891;28;20944;-67
2022/10/27 06:50:52;;;;;;;9.20;4.43;;;8.50;99.90;;;;;;4183468;28;20289;-67
2022/10/27 06:52:52;;;;;;;9.57;4.50;;;8.50;99.90;;;;;;4179852;28;20548;-67
2022/10/27 06:54:53;;;;;;;7.10;5.30;;;8.50;99.90;;;;;;4179817;28;21304;-67
2022/10/27 06:56:54;;;;;;;10.23;6.60;;;8.50;99.90;;;;;;4180078;28;20314;-67
2022/10/27 06:58:54;;;;;;;8.03;5.00;;;8.50;99.90;;;;;;4180078;28;20632;-67
2022/10/27 07:00:58;;;;;;;7.80;4.87;;;8.60;99.90;;;;;;4179190;28;20183;-67
2022/10/27 07:02:59;;;;;;;9.57;4.57;;;8.70;99.90;;;;;;4180577;28;20247;-66
2022/10/27 07:05:00;;;;;;;6.30;3.77;;;8.70;99.90;;;;;;4194792;28;20683;-67
2022/10/27 07:07:00;;;;;;;6.97;4.57;;;8.70;99.90;;;;;;4195991;28;20199;-67
2022/10/27 07:09:01;;;;;;;9.73;4.40;;;8.80;99.90;;;;;;4196176;28;20197;-67
2022/10/27 07:11:01;;;;;;;8.03;4.63;;;8.70;99.90;;;;;;4195470;28;20176;-67
2022/10/27 07:13:02;;;;;;;11.63;5.13;;;8.70;99.90;;;;;;4195823;28;20267;-67
2022/10/27 07:15:03;;;;;;;8.40;4.50;;;8.70;99.90;;;;;;4195704;28;20191;-67
2022/10/27 07:17:03;;;;;;;11.53;4.77;;;8.70;99.90;;;;;;4194748;28;20229;-67
2022/10/27 07:19:04;;;;;;;10.70;5.10;;;8.70;99.90;;;;;;4195847;28;20582;-67
2022/10/27 07:21:05;;;;;;;9.07;4.97;;;8.70;99.90;;;;;;4195221;28;20190;-67
2022/10/27 07:23:08;;;;;;;8.93;4.83;;;8.80;99.90;;;;;;4194419;28;20211;-67
2022/10/27 07:25:09;;;;;;;7.33;4.10;;;8.80;99.90;;;;;;4195749;28;20223;-67
2022/10/27 07:27:09;;;;;;;5.13;3.90;;;8.80;99.90;;;;;;4195655;28;20234;-67
2022/10/27 07:29:11;;;;;;;6.70;4.20;;;8.90;99.90;;;;;;4195741;28;20187;-67
2022/10/27 07:31:11;;;;;;;14.40;5.20;;;8.90;99.90;;;;;;4195205;28;20194;-66
2022/10/27 07:33:12;;;;;;;7.97;4.43;;;9.00;99.90;;;;;;4195710;28;20183;-67
2022/10/27 07:35:14;;;;;;;6.60;3.93;;;9.00;99.90;;;;;;4195598;28;20282;-67
2022/10/27 07:37:15;;;;;;;9.10;4.63;;;9.00;99.90;;;;;;4195562;28;20561;-67
2022/10/27 07:39:15;;;;;;;11.00;5.10;;;9.00;99.90;;;;;;4195492;28;20187;-67
2022/10/27 07:41:16;;;;;;;11.93;4.30;;;9.10;99.90;;;;;;4195068;28;20193;-67
2022/10/27 07:43:16;;;;;;;10.60;5.87;;;9.10;99.90;;;;;;4195961;28;20215;-67
2022/10/27 07:45:19;;;;;;;7.43;4.53;;;9.20;99.90;;;;;;4195463;28;20207;-66
2022/10/27 07:47:19;;;;;;;8.57;4.90;;;9.30;99.90;;;;;;4195634;28;20204;-66
2022/10/27 07:49:20;;;;;;;7.57;5.10;;;9.40;99.90;;;;;;4195569;28;20186;-65
2022/10/27 07:51:21;;;;;;;7.70;5.23;;;9.50;99.90;;;;;;4194948;28;20179;-65
2022/10/27 07:53:21;;;;;;;9.20;4.80;;;9.60;99.90;;;;;;4195618;28;20222;-66
2022/10/27 07:55:23;;;;;;;9.97;5.37;;;9.60;99.90;;;;;;4195712;28;20191;-65
2022/10/27 07:57:24;;;;;;;13.23;5.43;;;9.80;99.90;;;;;;4195426;28;20207;-66
2022/10/27 07:59:24;;;;;;;8.00;4.90;;;9.80;99.90;;;;;;4195553;28;20188;-66
2022/10/27 08:01:25;;;;;;;11.93;4.57;;;9.90;99.90;;;;;;4194847;28;20214;-65
2022/10/27 08:03:28;;;;;;;8.27;4.50;;;10.00;99.90;;;;;;4195557;28;20192;-66
2022/10/27 08:05:31;;;;;;;9.73;4.47;;;10.10;99.90;;;;;;4195636;28;20215;-66
2022/10/27 08:07:32;;;;;;;8.37;4.97;;;10.20;99.90;;;;;;4195473;28;20274;-66
2022/10/27 08:09:32;;;;;;;8.97;5.17;;;10.30;99.90;;;;;;4195397;28;20258;-66
2022/10/27 08:11:33;;;;;;;9.47;5.17;;;10.40;99.90;;;;;;4194769;28;20184;-66
2022/10/27 08:13:33;;;;;;;8.20;4.33;;;10.50;99.90;;;;;;4195136;28;20199;-66
2022/10/27 08:15:35;;;;;;;14.30;4.47;;;10.70;99.90;;;;;;4195406;28;20175;-66
2022/10/27 08:17:37;;;;;;;8.90;4.30;;;10.80;99.90;;;;;;4195107;28;20230;-65
2022/10/27 08:19:38;;;;;;;11.33;4.07;;;11.00;99.90;;;;;;4195371;28;20279;-66
2022/10/27 08:21:38;;;;;;;8.80;4.30;;;11.10;99.90;;;;;;4194726;28;20184;-66
2022/10/27 08:23:40;;;;;;;12.10;4.87;;;11.20;99.90;;;;;;4195118;28;20183;-66
2022/10/27 08:25:41;;;;;;;9.83;4.13;;;11.40;99.90;;;;;;4195561;28;20233;-66
2022/10/27 08:27:42;;;;;;;8.67;3.47;;;11.60;99.90;;;;;;4195848;28;20256;-66
2022/10/27 08:29:42;;;;;;;6.43;3.00;;;11.80;99.90;;;;;;4200770;28;20595;-66
2022/10/27 08:31:43;;;;;;;6.77;3.60;;;12.00;99.90;;;;;;4200154;28;20214;-66
2022/10/27 08:33:43;;;;;;;7.97;3.70;;;12.30;99.90;;;;;;4200438;28;20643;-66
2022/10/27 08:35:44;;;;;;;8.00;3.77;;;12.50;99.90;;;;;;4200707;28;20266;-66
2022/10/27 08:37:44;;;;;;;7.70;3.40;;;12.80;99.90;;;;;;4200956;28;20253;-66
2022/10/27 08:39:45;;;;;;;9.10;4.10;;;12.90;99.90;;;;;;4200573;28;20179;-66
2022/10/27 08:42:07;;;;;;;7.70;3.00;;;13.00;99.90;;;;;;4200104;28;20233;-66
2022/10/27 08:44:25;;;;;;;5.90;3.07;;;13.30;99.90;;;;;;4200459;28;20207;-66
2022/10/27 08:46:50;;;;;;;6.90;2.80;;;13.50;99.90;;;;;;4200640;28;20179;-66
2022/10/27 08:48:54;;;;;;;6.70;2.90;;;13.90;99.90;;;;;;4200490;28;20192;-66
2022/10/27 08:50:55;;;;;;;6.70;3.30;;;14.10;99.90;;;;;;4199993;28;20205;-66
2022/10/27 08:53:04;;;;;;;7.70;2.83;;;14.30;99.90;;;;;;4200731;28;20183;-66
2022/10/27 08:55:27;;;;;;;5.87;3.03;;;14.60;99.90;;;;;;4200484;28;20654;-66
2022/10/27 08:57:32;;;;;;;8.00;2.70;;;15.00;99.90;;;;;;4199985;28;20215;-67
2022/10/27 08:59:34;;;;;;;4.57;2.67;;;15.20;99.90;;;;;;4200379;28;20204;-66
2022/10/27 09:01:41;;;;;;;5.93;2.50;;;15.40;99.90;;;;;;4199734;28;20890;-66
2022/10/27 09:03:47;;;;;;;6.80;2.67;;;15.60;99.90;;;;;;4198606;28;20195;-66
2022/10/27 09:06:23;;;;;;;5.23;2.43;;;15.80;99.90;;;;;;4184366;28;20188;-66
2022/10/27 09:09:12;;;;;;;10.63;2.90;;;15.90;99.90;;;;;;4184216;28;20226;-67
2022/10/27 09:11:40;;;;;;;10.43;3.17;;;16.30;99.90;;;;;;4181019;28;20650;-67
2022/10/27 09:14:12;;;;;;;8.40;2.87;;;16.50;99.90;;;;;;4183462;28;20240;-67
2022/10/27 09:16:21;;;;;;;9.30;2.80;;;16.80;99.90;;;;;;4183705;28;20184;-67
2022/10/27 09:18:41;;;;;;;8.43;2.80;;;17.40;99.90;;;;;;4192551;28;20280;-67
2022/10/27 09:20:51;;;;;;;9.30;3.67;;;18.10;99.90;;;;;;4198499;28;20172;-65
2022/10/27 09:22:53;;;;;;;8.83;2.83;;;18.60;99.90;;;;;;4199414;28;20563;-65
2022/10/27 09:25:01;;;;;;;5.03;2.73;;;19.40;99.90;;;;;;4200281;28;20211;-67
2022/10/27 09:27:03;;;;;;;10.00;2.73;;;19.80;95.90;;;;;;4199076;28;20191;-67
2022/10/27 09:29:17;;;;;;;8.20;2.63;;;20.40;93.80;;;;;;4200382;28;20208;-67
2022/10/27 09:31:23;;;;;;;5.37;2.20;;;20.40;97.40;;;;;;4199539;28;20183;-65
2022/10/27 09:33:29;;;;;;;6.23;2.83;;;20.50;96.00;;;;;;4200321;28;20183;-65
2022/10/27 09:35:30;;;;;;;6.47;2.67;;;20.90;96.30;;;;;;4199140;28;20188;-65
2022/10/27 09:37:32;;;;;;;7.50;2.67;;;21.50;95.00;;;;;;4200283;28;20195;-65
2022/10/27 09:39:33;;;;;;;6.43;2.50;;;22.10;92.90;;;;;;4196864;28;20657;-65
2022/10/27 09:41:34;;;;;;;7.20;2.50;;;21.70;87.00;;;;;;4196622;28;20187;-65
2022/10/27 09:43:36;;;;;;;4.67;2.40;;;22.10;92.60;;;;;;4197441;28;20198;-66
2022/10/27 09:45:37;;;;;;;7.03;2.60;;;22.80;86.60;;;;;;4196569;28;20777;-65
2022/10/27 09:47:42;;;;;;;6.33;2.50;;;22.60;78.80;;;;;;4196558;28;20200;-65
2022/10/27 09:49:46;;;;;;;3.50;2.27;;;22.50;77.50;;;;;;4197712;28;20194;-65
2022/10/27 09:52:11;;;;;;;8.50;2.53;;;22.50;81.40;;;;;;4196934;28;20564;-65
2022/10/27 09:54:32;;;;;;;6.60;2.50;;;23.40;79.60;;;;;;4196035;28;20539;-66
2022/10/27 09:56:35;;;;;;;7.97;2.30;;;23.50;76.00;;;;;;4197380;28;20565;-66
2022/10/27 09:59:04;;;;;;;10.00;2.40;;;23.50;76.50;;;;;;4197272;28;20179;-65
2022/10/27 10:01:05;;;;;;;7.87;2.70;;;23.40;73.40;;;;;;4195410;28;20215;-65
2022/10/27 10:03:20;;;;;;;9.03;2.43;;;23.70;71.20;;;;;;4195957;28;20176;-65
2022/10/27 10:05:30;;;;;;;7.67;2.20;;;23.80;70.80;;;;;;4195874;28;20203;-65
2022/10/27 10:07:37;;;;;;;12.77;2.73;;;23.80;60.90;;;;;;4197263;28;20219;-65
2022/10/27 10:09:38;;;;;;;8.70;2.00;;;23.60;66.10;;;;;;4195825;28;20183;-65
2022/10/27 10:11:39;;;;;;;7.90;2.07;;;24.20;64.00;;;;;;4196498;28;20189;-65
2022/10/27 10:13:40;;;;;;;7.93;2.00;;;24.40;59.40;;;;;;4196964;28;20183;-65
2022/10/27 10:15:43;;;;;;;3.93;1.90;;;24.10;58.20;;;;;;4197139;28;20199;-65
2022/10/27 10:18:01;;;;;;;5.50;1.90;;;23.90;58.70;;;;;;4197418;28;20191;-65
2022/10/27 10:20:05;;;;;;;6.10;2.63;;;24.20;59.50;;;;;;4196314;28;20210;-64
2022/10/27 10:22:21;;;;;;;6.20;2.60;;;23.90;56.80;;;;;;4196538;28;20708;-65
2022/10/27 10:24:32;;;;;;;4.80;2.50;;;23.90;55.80;;;;;;4197459;28;20216;-65
2022/10/27 10:26:33;;;;;;;8.33;2.20;;;23.70;55.60;;;;;;4197486;28;20248;-65
2022/10/27 10:28:41;;;;;;;7.17;2.23;;;24.20;59.70;;;;;;4197281;28;20176;-65
2022/10/27 10:30:50;;;;;;;4.57;1.90;;;24.60;57.10;;;;;;4196623;28;20548;-65
2022/10/27 10:32:56;;;;;;;5.57;2.37;;;24.70;55.50;;;;;;4197367;28;20176;-65
2022/10/27 10:34:59;;;;;;;7.77;2.23;;;25.10;54.00;;;;;;4196930;28;20192;-65
2022/10/27 10:37:00;;;;;;;7.77;2.30;;;25.70;55.80;;;;;;4196950;28;20208;-65
2022/10/27 10:39:07;;;;;;;5.50;2.33;;;26.10;55.90;;;;;;4197038;28;20214;-65
2022/10/27 10:41:16;;;;;;;6.63;2.60;;;26.30;50.70;;;;;;4194915;28;20193;-65
2022/10/27 10:43:17;;;;;;;7.67;2.20;;;26.30;54.60;;;;;;4197134;28;20218;-65
2022/10/27 10:45:26;;;;;;;7.03;1.83;;;26.10;53.90;;;;;;4196887;28;20204;-65
2022/10/27 10:47:28;;;;;;;7.45;2.08;;;26.60;49.80;;;;;;4196710;28;20726;-65
2022/10/27 10:49:34;;;;;;;5.43;2.38;;;26.50;53.20;;;;;;4196877;28;20207;-65
2022/10/27 10:51:35;;;;;;;4.65;2.28;;;26.50;51.90;;;;;;4194784;28;20205;-65